sensor_id;sensor_type;location;lat;lon;timestamp;temperature;humidity
52267;DHT22;38223;50.940;4.034;2023-09-19T00:00:58;17.30;99.90
52267;DHT22;38223;50.940;4.034;2023-09-19T00:03:30;17.20;99.90
52267;DHT22;38223;50.940;4.034;2023-09-19T00:06:00;17.20;99.90
52267;DHT22;38223;50.940;4.034;2023-09-19T00:08:30;17.30;99.90
52267;DHT22;38223;50.940;4.034;2023-09-19T00:10:59;17.30;99.90
52267;DHT22;38223;50.940;4.034;2023-09-19T00:13:37;17.30;99.90
52267;DHT22;38223;50.940;4.034;2023-09-19T00:16:10;17.20;99.90
52267;DHT22;38223;50.940;4.034;2023-09-19T00:18:42;17.20;99.90
52267;DHT22;38223;50.940;4.034;2023-09-19T00:21:12;17.20;99.90
52267;DHT22;38223;50.940;4.034;2023-09-19T00:23:46;17.10;99.90
52267;DHT22;38223;50.940;4.034;2023-09-19T00:26:15;17.10;99.90
52267;DHT22;38223;50.940;4.034;2023-09-19T00:28:47;17.10;99.90
52267;DHT22;38223;50.940;4.034;2023-09-19T00:31:19;17.10;99.90
52267;DHT22;38223;50.940;4.034;2023-09-19T00:33:55;17.10;99.90
52267;DHT22;38223;50.940;4.034;2023-09-19T00:36:28;17.10;99.90
52267;DHT22;38223;50.940;4.034;2023-09-19T00:39:02;17.20;99.90
52267;DHT22;38223;50.940;4.034;2023-09-19T00:41:36;17.30;99.90
52267;DHT22;38223;50.940;4.034;2023-09-19T00:44:07;17.30;99.90
52267;DHT22;38223;50.940;4.034;2023-09-19T00:46:39;17.20;99.90
52267;DHT22;38223;50.940;4.034;2023-09-19T00:49:10;17.10;99.90
52267;DHT22;38223;50.940;4.034;2023-09-19T00:51:45;17.00;99.90
52267;DHT22;38223;50.940;4.034;2023-09-19T00:54:18;16.80;99.90
52267;DHT22;38223;50.940;4.034;2023-09-19T00:56:50;16.70;99.90
52267;DHT22;38223;50.940;4.034;2023-09-19T00:59:20;16.70;99.90
52267;DHT22;38223;50.940;4.034;2023-09-19T01:01:49;16.70;99.90
52267;DHT22;38223;50.940;4.034;2023-09-19T01:04:22;16.80;99.90
52267;DHT22;38223;50.940;4.034;2023-09-19T01:06:51;16.70;99.90
52267;DHT22;38223;50.940;4.034;2023-09-19T01:09:20;16.60;99.90
52267;DHT22;38223;50.940;4.034;2023-09-19T01:11:50;16.70;99.90
52267;DHT22;38223;50.940;4.034;2023-09-19T01:14:41;16.80;99.90
52267;DHT22;38223;50.940;4.034;2023-09-19T01:17:14;17.00;99.90
52267;DHT22;38223;50.940;4.034;2023-09-19T01:20:45;17.10;99.90
52267;DHT22;38223;50.940;4.034;2023-09-19T01:22:48;17.10;99.90
52267;DHT22;38223;50.940;4.034;2023-09-19T01:30:31;17.10;99.90
52267;DHT22;38223;50.940;4.034;2023-09-19T01:33:04;17.20;99.90
52267;DHT22;38223;50.940;4.034;2023-09-19T01:35:33;17.10;99.90
52267;DHT22;38223;50.940;4.034;2023-09-19T01:38:02;17.10;99.90
52267;DHT22;38223;50.940;4.034;2023-09-19T01:40:30;16.90;99.90
52267;DHT22;38223;50.940;4.034;2023-09-19T01:43:21;17.00;99.90
52267;DHT22;38223;50.940;4.034;2023-09-19T01:48:38;16.90;99.90
52267;DHT22;38223;50.940;4.034;2023-09-19T01:51:14;16.90;99.90
52267;DHT22;38223;50.940;4.034;2023-09-19T01:54:16;16.80;99.90
52267;DHT22;38223;50.940;4.034;2023-09-19T01:57:03;16.80;99.90
52267;DHT22;38223;50.940;4.034;2023-09-19T01:59:17;16.70;99.90
52267;DHT22;38223;50.940;4.034;2023-09-19T02:01:46;16.70;99.90
52267;DHT22;38223;50.940;4.034;2023-09-19T02:04:18;16.70;99.90
52267;DHT22;38223;50.940;4.034;2023-09-19T02:06:49;16.60;99.90
52267;DHT22;38223;50.940;4.034;2023-09-19T02:09:24;16.70;99.90
52267;DHT22;38223;50.940;4.034;2023-09-19T02:11:52;16.80;99.90
52267;DHT22;38223;50.940;4.034;2023-09-19T02:14:22;16.80;99.90
52267;DHT22;38223;50.940;4.034;2023-09-19T02:16:52;16.90;99.90
52267;DHT22;38223;50.940;4.034;2023-09-19T02:19:20;16.90;99.90
52267;DHT22;38223;50.940;4.034;2023-09-19T02:21:52;16.90;99.90
52267;DHT22;38223;50.940;4.034;2023-09-19T02:24:19;16.80;99.90
52267;DHT22;38223;50.940;4.034;2023-09-19T02:26:50;16.80;99.90
52267;DHT22;38223;50.940;4.034;2023-09-19T02:29:20;16.80;99.90
52267;DHT22;38223;50.940;4.034;2023-09-19T02:31:48;16.60;99.90
52267;DHT22;38223;50.940;4.034;2023-09-19T02:34:17;16.70;99.90
52267;DHT22;38223;50.940;4.034;2023-09-19T02:36:46;16.70;99.90
52267;DHT22;38223;50.940;4.034;2023-09-19T02:39:17;16.80;99.90
52267;DHT22;38223;50.940;4.034;2023-09-19T02:41:49;16.70;99.90
52267;DHT22;38223;50.940;4.034;2023-09-19T02:44:22;16.60;99.90
52267;DHT22;38223;50.940;4.034;2023-09-19T02:46:53;16.60;99.90
52267;DHT22;38223;50.940;4.034;2023-09-19T02:49:22;16.70;99.90
52267;DHT22;38223;50.940;4.034;2023-09-19T02:51:50;16.80;99.90
52267;DHT22;38223;50.940;4.034;2023-09-19T02:54:20;16.80;99.90
52267;DHT22;38223;50.940;4.034;2023-09-19T02:56:50;16.80;99.90
52267;DHT22;38223;50.940;4.034;2023-09-19T02:59:20;16.70;99.90
52267;DHT22;38223;50.940;4.034;2023-09-19T03:01:48;16.60;99.90
52267;DHT22;38223;50.940;4.034;2023-09-19T03:04:15;16.50;99.90
52267;DHT22;38223;50.940;4.034;2023-09-19T03:06:48;16.60;99.90
52267;DHT22;38223;50.940;4.034;2023-09-19T03:09:22;16.60;99.90
52267;DHT22;38223;50.940;4.034;2023-09-19T03:11:50;16.60;99.90
52267;DHT22;38223;50.940;4.034;2023-09-19T03:14:20;16.60;99.90
52267;DHT22;38223;50.940;4.034;2023-09-19T03:16:53;16.60;99.90
52267;DHT22;38223;50.940;4.034;2023-09-19T03:19:23;16.60;99.90
52267;DHT22;38223;50.940;4.034;2023-09-19T03:21:53;16.50;99.90
52267;DHT22;38223;50.940;4.034;2023-09-19T03:24:24;16.40;99.90
52267;DHT22;38223;50.940;4.034;2023-09-19T03:26:55;16.50;99.90
52267;DHT22;38223;50.940;4.034;2023-09-19T03:29:29;16.50;99.90
52267;DHT22;38223;50.940;4.034;2023-09-19T03:32:04;16.50;99.90
52267;DHT22;38223;50.940;4.034;2023-09-19T03:34:38;16.60;99.90
52267;DHT22;38223;50.940;4.034;2023-09-19T03:37:11;16.70;99.90
52267;DHT22;38223;50.940;4.034;2023-09-19T03:39:45;16.70;99.90
52267;DHT22;38223;50.940;4.034;2023-09-19T03:42:13;16.80;99.90
52267;DHT22;38223;50.940;4.034;2023-09-19T03:44:43;16.80;99.90
52267;DHT22;38223;50.940;4.034;2023-09-19T03:47:14;16.90;99.90
52267;DHT22;38223;50.940;4.034;2023-09-19T03:49:46;16.80;99.90
52267;DHT22;38223;50.940;4.034;2023-09-19T03:52:15;16.80;99.90
52267;DHT22;38223;50.940;4.034;2023-09-19T03:54:46;16.70;99.90
52267;DHT22;38223;50.940;4.034;2023-09-19T03:57:21;16.70;99.90
52267;DHT22;38223;50.940;4.034;2023-09-19T03:59:48;16.50;99.90
52267;DHT22;38223;50.940;4.034;2023-09-19T04:02:20;16.40;99.90
52267;DHT22;38223;50.940;4.034;2023-09-19T04:04:55;16.30;99.90
52267;DHT22;38223;50.940;4.034;2023-09-19T04:07:26;16.20;99.90
52267;DHT22;38223;50.940;4.034;2023-09-19T04:09:57;16.20;99.90
52267;DHT22;38223;50.940;4.034;2023-09-19T04:12:28;16.10;99.90
52267;DHT22;38223;50.940;4.034;2023-09-19T04:15:01;16.10;99.90
52267;DHT22;38223;50.940;4.034;2023-09-19T04:17:33;16.10;99.90
52267;DHT22;38223;50.940;4.034;2023-09-19T04:20:05;16.10;99.90
52267;DHT22;38223;50.940;4.034;2023-09-19T04:22:37;16.10;99.90
52267;DHT22;38223;50.940;4.034;2023-09-19T04:25:08;16.00;99.90
52267;DHT22;38223;50.940;4.034;2023-09-19T04:27:38;16.00;99.90
52267;DHT22;38223;50.940;4.034;2023-09-19T04:30:09;15.90;99.90
52267;DHT22;38223;50.940;4.034;2023-09-19T04:32:43;15.80;99.90
52267;DHT22;38223;50.940;4.034;2023-09-19T04:35:13;15.80;99.90
52267;DHT22;38223;50.940;4.034;2023-09-19T04:37:45;15.70;99.90
52267;DHT22;38223;50.940;4.034;2023-09-19T04:40:20;15.80;99.90
52267;DHT22;38223;50.940;4.034;2023-09-19T04:42:59;15.70;99.90
52267;DHT22;38223;50.940;4.034;2023-09-19T04:45:30;15.70;99.90
52267;DHT22;38223;50.940;4.034;2023-09-19T04:48:01;15.90;99.90
52267;DHT22;38223;50.940;4.034;2023-09-19T04:50:31;15.80;99.90
52267;DHT22;38223;50.940;4.034;2023-09-19T04:53:02;15.70;99.90
52267;DHT22;38223;50.940;4.034;2023-09-19T04:55:31;15.70;99.90
52267;DHT22;38223;50.940;4.034;2023-09-19T04:58:05;15.60;99.90
52267;DHT22;38223;50.940;4.034;2023-09-19T05:00:35;15.50;99.90
52267;DHT22;38223;50.940;4.034;2023-09-19T05:03:07;15.60;99.90
52267;DHT22;38223;50.940;4.034;2023-09-19T05:05:40;15.50;99.90
52267;DHT22;38223;50.940;4.034;2023-09-19T05:08:09;15.60;99.90
52267;DHT22;38223;50.940;4.034;2023-09-19T05:10:40;15.60;99.90
52267;DHT22;38223;50.940;4.034;2023-09-19T05:13:16;15.60;99.90
52267;DHT22;38223;50.940;4.034;2023-09-19T05:15:46;15.70;99.90
52267;DHT22;38223;50.940;4.034;2023-09-19T05:18:17;15.60;99.90
52267;DHT22;38223;50.940;4.034;2023-09-19T05:20:47;15.70;99.90
52267;DHT22;38223;50.940;4.034;2023-09-19T05:23:20;15.60;99.90
52267;DHT22;38223;50.940;4.034;2023-09-19T05:25:49;15.70;99.90
52267;DHT22;38223;50.940;4.034;2023-09-19T05:28:22;15.60;99.90
52267;DHT22;38223;50.940;4.034;2023-09-19T05:30:54;15.50;99.90
52267;DHT22;38223;50.940;4.034;2023-09-19T05:33:26;15.50;99.90
52267;DHT22;38223;50.940;4.034;2023-09-19T05:36:00;15.50;99.90
52267;DHT22;38223;50.940;4.034;2023-09-19T05:38:28;15.60;99.90
52267;DHT22;38223;50.940;4.034;2023-09-19T05:40:59;15.50;99.90
52267;DHT22;38223;50.940;4.034;2023-09-19T05:43:30;15.60;99.90
52267;DHT22;38223;50.940;4.034;2023-09-19T05:46:01;15.50;99.90
52267;DHT22;38223;50.940;4.034;2023-09-19T05:48:32;15.60;99.90
52267;DHT22;38223;50.940;4.034;2023-09-19T05:51:06;15.70;99.90
52267;DHT22;38223;50.940;4.034;2023-09-19T05:53:37;15.70;99.90
52267;DHT22;38223;50.940;4.034;2023-09-19T05:56:07;15.80;99.90
52267;DHT22;38223;50.940;4.034;2023-09-19T05:58:37;15.80;99.90
52267;DHT22;38223;50.940;4.034;2023-09-19T06:01:10;15.70;99.90
52267;DHT22;38223;50.940;4.034;2023-09-19T06:03:41;15.70;99.90
52267;DHT22;38223;50.940;4.034;2023-09-19T06:06:10;15.70;99.90
52267;DHT22;38223;50.940;4.034;2023-09-19T06:08:39;15.90;99.90
52267;DHT22;38223;50.940;4.034;2023-09-19T06:11:11;15.90;99.90
52267;DHT22;38223;50.940;4.034;2023-09-19T06:13:39;15.90;99.90
52267;DHT22;38223;50.940;4.034;2023-09-19T06:16:07;15.90;99.90
52267;DHT22;38223;50.940;4.034;2023-09-19T06:18:36;15.90;99.90
52267;DHT22;38223;50.940;4.034;2023-09-19T06:21:06;15.90;99.90
52267;DHT22;38223;50.940;4.034;2023-09-19T06:23:41;16.00;99.90
52267;DHT22;38223;50.940;4.034;2023-09-19T06:26:17;16.00;99.90
52267;DHT22;38223;50.940;4.034;2023-09-19T06:28:47;16.10;99.90
52267;DHT22;38223;50.940;4.034;2023-09-19T06:31:18;16.10;99.90
52267;DHT22;38223;50.940;4.034;2023-09-19T06:33:55;16.10;99.90
52267;DHT22;38223;50.940;4.034;2023-09-19T06:36:32;16.10;99.90
52267;DHT22;38223;50.940;4.034;2023-09-19T06:39:05;16.20;99.90
52267;DHT22;38223;50.940;4.034;2023-09-19T06:41:34;16.20;99.90
52267;DHT22;38223;50.940;4.034;2023-09-19T06:44:05;16.10;99.90
52267;DHT22;38223;50.940;4.034;2023-09-19T06:46:36;16.00;99.90
52267;DHT22;38223;50.940;4.034;2023-09-19T06:49:06;16.10;99.90
52267;DHT22;38223;50.940;4.034;2023-09-19T06:51:42;16.00;99.90
52267;DHT22;38223;50.940;4.034;2023-09-19T06:54:12;16.00;99.90
52267;DHT22;38223;50.940;4.034;2023-09-19T06:56:45;15.90;99.90
52267;DHT22;38223;50.940;4.034;2023-09-19T06:59:18;15.70;99.90
52267;DHT22;38223;50.940;4.034;2023-09-19T07:01:50;15.60;99.90
52267;DHT22;38223;50.940;4.034;2023-09-19T07:04:19;15.60;99.90
52267;DHT22;38223;50.940;4.034;2023-09-19T07:06:52;15.60;99.90
52267;DHT22;38223;50.940;4.034;2023-09-19T07:09:27;15.60;99.90
52267;DHT22;38223;50.940;4.034;2023-09-19T07:11:55;15.60;99.90
52267;DHT22;38223;50.940;4.034;2023-09-19T07:14:32;15.60;99.90
52267;DHT22;38223;50.940;4.034;2023-09-19T07:17:03;15.60;99.90
52267;DHT22;38223;50.940;4.034;2023-09-19T07:19:43;15.60;99.90
52267;DHT22;38223;50.940;4.034;2023-09-19T07:22:14;15.60;99.90
52267;DHT22;38223;50.940;4.034;2023-09-19T07:24:45;15.70;99.90
52267;DHT22;38223;50.940;4.034;2023-09-19T07:27:15;15.80;99.90
52267;DHT22;38223;50.940;4.034;2023-09-19T07:29:44;15.80;99.90
52267;DHT22;38223;50.940;4.034;2023-09-19T07:32:15;15.90;99.90
52267;DHT22;38223;50.940;4.034;2023-09-19T07:34:48;16.00;99.90
52267;DHT22;38223;50.940;4.034;2023-09-19T07:37:17;16.10;99.90
52267;DHT22;38223;50.940;4.034;2023-09-19T07:39:47;16.30;99.90
52267;DHT22;38223;50.940;4.034;2023-09-19T07:42:17;16.40;99.90
52267;DHT22;38223;50.940;4.034;2023-09-19T07:44:47;16.60;99.90
52267;DHT22;38223;50.940;4.034;2023-09-19T07:47:21;16.70;99.90
52267;DHT22;38223;50.940;4.034;2023-09-19T07:49:57;16.80;99.90
52267;DHT22;38223;50.940;4.034;2023-09-19T07:52:26;16.80;99.90
52267;DHT22;38223;50.940;4.034;2023-09-19T07:55:01;16.90;99.90
52267;DHT22;38223;50.940;4.034;2023-09-19T07:57:31;16.90;99.90
52267;DHT22;38223;50.940;4.034;2023-09-19T08:00:02;16.90;99.90
52267;DHT22;38223;50.940;4.034;2023-09-19T08:02:42;17.00;99.90
52267;DHT22;38223;50.940;4.034;2023-09-19T08:05:13;17.00;99.90
52267;DHT22;38223;50.940;4.034;2023-09-19T08:07:51;17.10;99.90
52267;DHT22;38223;50.940;4.034;2023-09-19T08:10:20;17.00;99.90
52267;DHT22;38223;50.940;4.034;2023-09-19T08:12:52;17.00;99.90
52267;DHT22;38223;50.940;4.034;2023-09-19T08:15:22;17.10;99.90
52267;DHT22;38223;50.940;4.034;2023-09-19T08:17:54;17.10;99.90
52267;DHT22;38223;50.940;4.034;2023-09-19T08:20:26;17.10;99.90
52267;DHT22;38223;50.940;4.034;2023-09-19T08:22:55;17.20;99.90
52267;DHT22;38223;50.940;4.034;2023-09-19T08:25:25;17.30;99.90
52267;DHT22;38223;50.940;4.034;2023-09-19T08:27:56;17.40;99.90
52267;DHT22;38223;50.940;4.034;2023-09-19T08:30:25;17.50;99.90
52267;DHT22;38223;50.940;4.034;2023-09-19T08:33:02;17.50;99.90
52267;DHT22;38223;50.940;4.034;2023-09-19T08:35:39;17.50;99.90
52267;DHT22;38223;50.940;4.034;2023-09-19T08:38:13;17.60;99.90
52267;DHT22;38223;50.940;4.034;2023-09-19T08:40:44;17.60;99.90
52267;DHT22;38223;50.940;4.034;2023-09-19T08:43:16;17.80;99.90
52267;DHT22;38223;50.940;4.034;2023-09-19T08:45:46;17.80;99.90
52267;DHT22;38223;50.940;4.034;2023-09-19T08:48:26;17.90;99.90
52267;DHT22;38223;50.940;4.034;2023-09-19T08:51:02;18.00;99.90
52267;DHT22;38223;50.940;4.034;2023-09-19T08:53:54;18.00;99.90
52267;DHT22;38223;50.940;4.034;2023-09-19T08:56:25;17.90;99.90
52267;DHT22;38223;50.940;4.034;2023-09-19T08:59:02;17.90;99.90
52267;DHT22;38223;50.940;4.034;2023-09-19T09:01:33;18.00;99.90
52267;DHT22;38223;50.940;4.034;2023-09-19T09:04:02;18.00;99.90
52267;DHT22;38223;50.940;4.034;2023-09-19T09:06:36;18.10;99.90
52267;DHT22;38223;50.940;4.034;2023-09-19T09:09:07;18.20;99.90
52267;DHT22;38223;50.940;4.034;2023-09-19T09:11:39;18.20;99.90
52267;DHT22;38223;50.940;4.034;2023-09-19T09:14:10;18.30;99.90
52267;DHT22;38223;50.940;4.034;2023-09-19T09:16:41;18.30;99.90
52267;DHT22;38223;50.940;4.034;2023-09-19T09:19:10;18.20;99.90
52267;DHT22;38223;50.940;4.034;2023-09-19T09:21:45;18.10;99.90
52267;DHT22;38223;50.940;4.034;2023-09-19T09:24:36;18.20;99.90
52267;DHT22;38223;50.940;4.034;2023-09-19T09:27:10;18.20;99.90
52267;DHT22;38223;50.940;4.034;2023-09-19T09:29:46;18.30;99.90
52267;DHT22;38223;50.940;4.034;2023-09-19T09:32:36;18.30;99.90
52267;DHT22;38223;50.940;4.034;2023-09-19T09:35:11;18.30;99.90
52267;DHT22;38223;50.940;4.034;2023-09-19T09:37:48;18.20;99.90
52267;DHT22;38223;50.940;4.034;2023-09-19T09:40:20;18.20;99.90
52267;DHT22;38223;50.940;4.034;2023-09-19T09:42:52;18.20;99.90
52267;DHT22;38223;50.940;4.034;2023-09-19T09:45:23;18.30;99.90
52267;DHT22;38223;50.940;4.034;2023-09-19T09:48:07;18.50;99.90
52267;DHT22;38223;50.940;4.034;2023-09-19T09:50:45;18.60;99.90
52267;DHT22;38223;50.940;4.034;2023-09-19T09:53:27;18.60;99.90
52267;DHT22;38223;50.940;4.034;2023-09-19T09:56:02;18.50;99.90
52267;DHT22;38223;50.940;4.034;2023-09-19T09:58:35;18.50;99.90
52267;DHT22;38223;50.940;4.034;2023-09-19T10:01:07;18.60;99.90
52267;DHT22;38223;50.940;4.034;2023-09-19T10:03:39;18.60;99.90
52267;DHT22;38223;50.940;4.034;2023-09-19T10:06:14;18.60;99.90
52267;DHT22;38223;50.940;4.034;2023-09-19T10:09:07;18.60;99.90
52267;DHT22;38223;50.940;4.034;2023-09-19T10:11:43;18.70;99.90
52267;DHT22;38223;50.940;4.034;2023-09-19T10:14:20;18.70;99.90
52267;DHT22;38223;50.940;4.034;2023-09-19T10:16:50;18.70;99.90
52267;DHT22;38223;50.940;4.034;2023-09-19T10:19:33;18.80;99.90
52267;DHT22;38223;50.940;4.034;2023-09-19T10:22:01;18.90;99.90
52267;DHT22;38223;50.940;4.034;2023-09-19T10:24:29;19.00;99.90
52267;DHT22;38223;50.940;4.034;2023-09-19T10:27:00;19.20;99.90
52267;DHT22;38223;50.940;4.034;2023-09-19T10:29:32;19.30;99.90
52267;DHT22;38223;50.940;4.034;2023-09-19T10:32:06;19.40;99.90
52267;DHT22;38223;50.940;4.034;2023-09-19T10:34:42;19.40;99.90
52267;DHT22;38223;50.940;4.034;2023-09-19T10:37:11;19.30;99.90
52267;DHT22;38223;50.940;4.034;2023-09-19T10:39:49;19.30;99.90
52267;DHT22;38223;50.940;4.034;2023-09-19T10:42:19;19.20;99.90
52267;DHT22;38223;50.940;4.034;2023-09-19T10:44:55;19.40;99.90
52267;DHT22;38223;50.940;4.034;2023-09-19T10:47:23;19.50;99.90
52267;DHT22;38223;50.940;4.034;2023-09-19T10:49:54;19.60;99.90
52267;DHT22;38223;50.940;4.034;2023-09-19T10:52:28;19.60;99.90
52267;DHT22;38223;50.940;4.034;2023-09-19T10:55:01;19.70;99.90
52267;DHT22;38223;50.940;4.034;2023-09-19T10:57:36;19.60;99.90
52267;DHT22;38223;50.940;4.034;2023-09-19T11:00:11;19.80;99.90
52267;DHT22;38223;50.940;4.034;2023-09-19T11:05:42;19.80;99.90
52267;DHT22;38223;50.940;4.034;2023-09-19T11:08:15;19.90;99.90
52267;DHT22;38223;50.940;4.034;2023-09-19T11:10:52;19.90;99.90
52267;DHT22;38223;50.940;4.034;2023-09-19T11:13:33;19.90;99.90
52267;DHT22;38223;50.940;4.034;2023-09-19T11:16:08;20.00;99.90
52267;DHT22;38223;50.940;4.034;2023-09-19T11:27:11;20.10;99.90
52267;DHT22;38223;50.940;4.034;2023-09-19T11:29:45;20.30;99.90
52267;DHT22;38223;50.940;4.034;2023-09-19T11:32:16;20.40;99.90
52267;DHT22;38223;50.940;4.034;2023-09-19T11:34:47;20.30;99.90
52267;DHT22;38223;50.940;4.034;2023-09-19T11:40:10;20.30;99.90
52267;DHT22;38223;50.940;4.034;2023-09-19T11:42:48;20.40;99.90
52267;DHT22;38223;50.940;4.034;2023-09-19T11:48:18;20.50;99.90
52267;DHT22;38223;50.940;4.034;2023-09-19T11:50:52;20.50;99.90
52267;DHT22;38223;50.940;4.034;2023-09-19T11:53:31;20.60;99.90
52267;DHT22;38223;50.940;4.034;2023-09-19T11:56:00;20.70;99.90
52267;DHT22;38223;50.940;4.034;2023-09-19T11:58:32;20.80;99.90
52267;DHT22;38223;50.940;4.034;2023-09-19T12:01:11;20.90;99.90
52267;DHT22;38223;50.940;4.034;2023-09-19T12:03:45;20.80;99.90
52267;DHT22;38223;50.940;4.034;2023-09-19T12:06:21;20.70;99.90
52267;DHT22;38223;50.940;4.034;2023-09-19T12:08:48;20.80;99.90
52267;DHT22;38223;50.940;4.034;2023-09-19T12:11:19;20.90;99.90
52267;DHT22;38223;50.940;4.034;2023-09-19T12:13:49;20.80;99.90
52267;DHT22;38223;50.940;4.034;2023-09-19T12:16:22;20.80;99.90
52267;DHT22;38223;50.940;4.034;2023-09-19T12:18:51;20.80;99.90
52267;DHT22;38223;50.940;4.034;2023-09-19T12:21:27;20.80;99.90
52267;DHT22;38223;50.940;4.034;2023-09-19T12:26:43;20.90;99.90
52267;DHT22;38223;50.940;4.034;2023-09-19T12:29:19;21.00;99.90
52267;DHT22;38223;50.940;4.034;2023-09-19T12:31:56;21.00;99.90
52267;DHT22;38223;50.940;4.034;2023-09-19T12:34:28;21.00;99.90
52267;DHT22;38223;50.940;4.034;2023-09-19T12:39:45;20.90;99.90
52267;DHT22;38223;50.940;4.034;2023-09-19T12:42:19;20.80;99.90
52267;DHT22;38223;50.940;4.034;2023-09-19T12:44:52;20.90;99.90
52267;DHT22;38223;50.940;4.034;2023-09-19T12:47:25;21.10;99.90
52267;DHT22;38223;50.940;4.034;2023-09-19T12:50:14;21.20;99.90
52267;DHT22;38223;50.940;4.034;2023-09-19T12:52:52;21.10;99.90
52267;DHT22;38223;50.940;4.034;2023-09-19T12:55:28;21.00;99.90
52267;DHT22;38223;50.940;4.034;2023-09-19T12:58:15;20.90;99.90
52267;DHT22;38223;50.940;4.034;2023-09-19T13:00:46;20.90;99.90
52267;DHT22;38223;50.940;4.034;2023-09-19T13:06:00;20.80;99.90
52267;DHT22;38223;50.940;4.034;2023-09-19T13:08:38;20.90;99.90
52267;DHT22;38223;50.940;4.034;2023-09-19T13:11:14;21.00;99.90
52267;DHT22;38223;50.940;4.034;2023-09-19T13:13:50;21.30;99.90
52267;DHT22;38223;50.940;4.034;2023-09-19T13:16:21;21.40;99.90
52267;DHT22;38223;50.940;4.034;2023-09-19T13:18:52;21.40;99.90
52267;DHT22;38223;50.940;4.034;2023-09-19T13:21:34;21.40;99.90
52267;DHT22;38223;50.940;4.034;2023-09-19T13:24:24;21.30;99.90
52267;DHT22;38223;50.940;4.034;2023-09-19T13:27:00;21.40;99.90
52267;DHT22;38223;50.940;4.034;2023-09-19T13:29:33;21.30;99.90
52267;DHT22;38223;50.940;4.034;2023-09-19T13:32:04;21.20;99.90
52267;DHT22;38223;50.940;4.034;2023-09-19T13:34:35;21.20;99.90
52267;DHT22;38223;50.940;4.034;2023-09-19T13:37:04;21.30;99.90
52267;DHT22;38223;50.940;4.034;2023-09-19T13:39:36;21.30;99.90
52267;DHT22;38223;50.940;4.034;2023-09-19T13:42:08;21.40;99.90
52267;DHT22;38223;50.940;4.034;2023-09-19T13:44:39;21.40;99.90
52267;DHT22;38223;50.940;4.034;2023-09-19T13:47:11;21.40;99.90
52267;DHT22;38223;50.940;4.034;2023-09-19T13:49:41;21.40;99.90
52267;DHT22;38223;50.940;4.034;2023-09-19T13:52:09;21.30;99.90
52267;DHT22;38223;50.940;4.034;2023-09-19T13:54:38;21.20;99.90
52267;DHT22;38223;50.940;4.034;2023-09-19T13:57:10;21.10;99.90
52267;DHT22;38223;50.940;4.034;2023-09-19T13:59:40;21.10;99.90
52267;DHT22;38223;50.940;4.034;2023-09-19T14:02:09;21.10;99.90
52267;DHT22;38223;50.940;4.034;2023-09-19T14:04:39;21.10;99.90
52267;DHT22;38223;50.940;4.034;2023-09-19T14:07:06;21.10;99.90
52267;DHT22;38223;50.940;4.034;2023-09-19T14:09:35;21.10;99.90
52267;DHT22;38223;50.940;4.034;2023-09-19T14:12:11;20.90;99.90
52267;DHT22;38223;50.940;4.034;2023-09-19T14:14:41;20.80;99.90
52267;DHT22;38223;50.940;4.034;2023-09-19T14:17:16;20.80;99.90
52267;DHT22;38223;50.940;4.034;2023-09-19T14:19:45;20.80;99.90
52267;DHT22;38223;50.940;4.034;2023-09-19T14:22:14;20.80;99.90
52267;DHT22;38223;50.940;4.034;2023-09-19T14:24:47;20.80;99.90
52267;DHT22;38223;50.940;4.034;2023-09-19T14:27:14;20.80;99.90
52267;DHT22;38223;50.940;4.034;2023-09-19T14:29:42;20.80;99.90
52267;DHT22;38223;50.940;4.034;2023-09-19T14:32:11;20.80;99.90
52267;DHT22;38223;50.940;4.034;2023-09-19T14:34:44;20.80;99.90
52267;DHT22;38223;50.940;4.034;2023-09-19T14:37:13;20.80;99.90
52267;DHT22;38223;50.940;4.034;2023-09-19T14:39:44;20.80;99.90
52267;DHT22;38223;50.940;4.034;2023-09-19T14:42:16;20.70;99.90
52267;DHT22;38223;50.940;4.034;2023-09-19T14:44:45;20.70;99.90
52267;DHT22;38223;50.940;4.034;2023-09-19T14:47:15;20.80;99.90
52267;DHT22;38223;50.940;4.034;2023-09-19T14:49:43;20.80;99.90
52267;DHT22;38223;50.940;4.034;2023-09-19T14:52:12;20.70;99.90
52267;DHT22;38223;50.940;4.034;2023-09-19T14:54:42;20.50;99.90
52267;DHT22;38223;50.940;4.034;2023-09-19T14:57:12;20.50;99.90
52267;DHT22;38223;50.940;4.034;2023-09-19T14:59:42;20.40;99.90
52267;DHT22;38223;50.940;4.034;2023-09-19T15:02:10;20.40;99.90
52267;DHT22;38223;50.940;4.034;2023-09-19T15:04:38;20.40;99.90
52267;DHT22;38223;50.940;4.034;2023-09-19T15:07:07;20.40;99.90
52267;DHT22;38223;50.940;4.034;2023-09-19T15:09:39;20.50;99.90
52267;DHT22;38223;50.940;4.034;2023-09-19T15:12:07;20.40;99.90
52267;DHT22;38223;50.940;4.034;2023-09-19T15:14:36;20.50;99.90
52267;DHT22;38223;50.940;4.034;2023-09-19T15:17:04;20.30;99.90
52267;DHT22;38223;50.940;4.034;2023-09-19T15:19:31;20.30;99.90
52267;DHT22;38223;50.940;4.034;2023-09-19T15:21:59;20.30;99.90
52267;DHT22;38223;50.940;4.034;2023-09-19T15:24:27;20.20;99.90
52267;DHT22;38223;50.940;4.034;2023-09-19T15:26:57;20.40;99.90
52267;DHT22;38223;50.940;4.034;2023-09-19T15:32:15;20.40;99.90
52267;DHT22;38223;50.940;4.034;2023-09-19T15:34:43;20.30;99.90
52267;DHT22;38223;50.940;4.034;2023-09-19T15:37:11;20.30;99.90
52267;DHT22;38223;50.940;4.034;2023-09-19T15:39:44;20.30;99.90
52267;DHT22;38223;50.940;4.034;2023-09-19T15:42:13;20.40;99.90
52267;DHT22;38223;50.940;4.034;2023-09-19T15:44:42;20.30;99.90
52267;DHT22;38223;50.940;4.034;2023-09-19T15:47:11;20.30;99.90
52267;DHT22;38223;50.940;4.034;2023-09-19T15:49:41;20.20;99.90
52267;DHT22;38223;50.940;4.034;2023-09-19T15:52:12;20.10;99.90
52267;DHT22;38223;50.940;4.034;2023-09-19T15:54:43;20.10;99.90
52267;DHT22;38223;50.940;4.034;2023-09-19T15:57:11;20.10;99.90
52267;DHT22;38223;50.940;4.034;2023-09-19T15:59:40;20.10;99.90
52267;DHT22;38223;50.940;4.034;2023-09-19T16:02:09;20.20;99.90
52267;DHT22;38223;50.940;4.034;2023-09-19T16:04:38;20.10;99.90
52267;DHT22;38223;50.940;4.034;2023-09-19T16:07:06;20.20;99.90
52267;DHT22;38223;50.940;4.034;2023-09-19T16:09:39;20.10;99.90
52267;DHT22;38223;50.940;4.034;2023-09-19T16:12:09;20.00;99.90
52267;DHT22;38223;50.940;4.034;2023-09-19T16:14:57;20.10;99.90
52267;DHT22;38223;50.940;4.034;2023-09-19T16:17:25;20.20;99.90
52267;DHT22;38223;50.940;4.034;2023-09-19T16:19:54;20.30;99.90
52267;DHT22;38223;50.940;4.034;2023-09-19T16:22:23;20.20;99.90
52267;DHT22;38223;50.940;4.034;2023-09-19T16:24:51;20.30;99.90
52267;DHT22;38223;50.940;4.034;2023-09-19T16:27:22;20.20;99.90
52267;DHT22;38223;50.940;4.034;2023-09-19T16:29:51;20.20;99.90
52267;DHT22;38223;50.940;4.034;2023-09-19T16:32:20;20.10;99.90
52267;DHT22;38223;50.940;4.034;2023-09-19T16:34:50;20.10;99.90
52267;DHT22;38223;50.940;4.034;2023-09-19T16:37:24;20.00;99.90